Time;durP1;ratioP1;P1;durP2;ratioP2;P2;SDS_P1;SDS_P2;PMS_P1;PMS_P2;Temp;Humidity;BMP_temperature;BMP_pressure;BME280_temperature;BME280_humidity;BME280_pressure;Samples;Min_cycle;Max_cycle;Signal;HPM_P1;HPM_P2
2023/11/10 00:02:21;;;;;;;8.43;1.85;;;6.40;99.90;;;;;;4973117;28;20026;-64
2023/11/10 00:04:49;;;;;;;6.70;1.55;;;6.40;99.90;;;;;;4984987;28;20030;-64
2023/11/10 00:07:17;;;;;;;5.60;1.58;;;6.40;99.90;;;;;;4985595;28;20018;-64
2023/11/10 00:09:45;;;;;;;5.97;2.33;;;6.30;99.90;;;;;;4967094;28;20368;-64
2023/11/10 00:12:12;;;;;;;5.10;1.35;;;6.30;99.90;;;;;;4961690;28;20019;-63
2023/11/10 00:14:39;;;;;;;7.03;1.40;;;6.30;99.90;;;;;;4962382;28;20219;-63
2023/11/10 00:17:09;;;;;;;4.38;1.20;;;6.30;99.90;;;;;;4964075;28;20374;-63
2023/11/10 00:19:36;;;;;;;5.95;1.63;;;6.20;99.90;;;;;;4964337;28;20085;-63
2023/11/10 00:22:04;;;;;;;3.50;1.10;;;6.20;99.90;;;;;;4955928;28;20118;-63
2023/11/10 00:24:33;;;;;;;4.60;1.67;;;6.20;99.90;;;;;;4963173;28;20026;-63
2023/11/10 00:27:00;;;;;;;4.00;1.40;;;6.20;99.90;;;;;;4965635;28;20030;-63
2023/11/10 00:29:26;;;;;;;5.25;1.20;;;6.20;99.90;;;;;;4964566;28;20822;-63
2023/11/10 00:31:51;;;;;;;6.30;1.40;;;6.30;99.90;;;;;;4962913;28;20019;-62
2023/11/10 00:34:17;;;;;;;4.20;1.10;;;6.30;99.90;;;;;;4963021;28;20034;-62
2023/11/10 00:36:43;;;;;;;4.88;1.20;;;6.30;99.90;;;;;;4962614;28;20055;-65
2023/11/10 00:39:10;;;;;;;5.53;1.63;;;6.20;99.90;;;;;;4963434;28;20024;-63
2023/11/10 00:41:35;;;;;;;4.43;1.25;;;6.20;99.90;;;;;;4964186;28;20030;-63
2023/11/10 00:44:05;;;;;;;3.38;1.05;;;6.10;99.90;;;;;;4965391;28;20031;-63
2023/11/10 00:46:31;;;;;;;4.10;1.35;;;6.10;99.90;;;;;;4961801;28;20057;-63
2023/11/10 00:48:58;;;;;;;4.90;1.40;;;6.10;99.90;;;;;;4962190;28;20077;-63
2023/11/10 00:51:25;;;;;;;3.00;1.13;;;6.10;99.90;;;;;;4962936;28;20026;-63
2023/11/10 00:53:51;;;;;;;5.05;1.20;;;6.20;99.90;;;;;;4962519;28;20383;-63
2023/11/10 00:56:17;;;;;;;4.57;1.30;;;6.20;99.90;;;;;;4964693;28;20023;-63
2023/11/10 00:58:42;;;;;;;4.38;1.40;;;6.20;99.90;;;;;;4961426;28;20117;-63
2023/11/10 01:01:08;;;;;;;5.30;1.10;;;6.20;99.90;;;;;;4960525;28;20458;-63
2023/11/10 01:03:33;;;;;;;3.92;1.10;;;6.10;99.90;;;;;;4962175;28;20031;-63
2023/11/10 01:05:59;;;;;;;2.50;1.00;;;6.00;99.90;;;;;;4964409;28;20497;-63
2023/11/10 01:08:25;;;;;;;5.20;1.50;;;6.00;99.90;;;;;;4962226;28;20051;-63
2023/11/10 01:10:51;;;;;;;5.72;1.50;;;6.00;99.90;;;;;;4966063;28;20037;-63
2023/11/10 01:13:16;;;;;;;5.82;1.30;;;6.00;99.90;;;;;;4951582;28;20045;-63
2023/11/10 01:15:42;;;;;;;4.03;1.40;;;6.00;99.90;;;;;;4959983;28;20039;-63
2023/11/10 01:18:07;;;;;;;3.90;1.17;;;6.10;99.90;;;;;;4961698;28;20054;-63
2023/11/10 01:20:33;;;;;;;4.05;1.40;;;6.10;99.90;;;;;;4958400;28;20033;-63
2023/11/10 01:22:59;;;;;;;9.05;1.17;;;6.20;99.90;;;;;;4962771;28;20032;-63
2023/11/10 01:25:25;;;;;;;3.55;1.23;;;6.20;99.90;;;;;;4958782;28;20031;-63
2023/11/10 01:27:53;;;;;;;5.18;1.10;;;6.20;99.90;;;;;;4960095;28;20030;-63
2023/11/10 01:30:19;;;;;;;4.65;1.30;;;6.20;99.90;;;;;;4961795;28;20026;-63
2023/11/10 01:32:45;;;;;;;4.20;1.60;;;6.20;99.90;;;;;;4959569;28;20027;-63
2023/11/10 01:35:11;;;;;;;5.15;1.40;;;6.30;99.90;;;;;;4962720;28;20046;-63
2023/11/10 01:37:36;;;;;;;7.50;1.35;;;6.30;99.90;;;;;;4959569;28;20028;-64
2023/11/10 01:40:02;;;;;;;7.68;1.50;;;6.30;99.90;;;;;;4961779;28;20471;-64
2023/11/10 01:42:28;;;;;;;5.15;1.50;;;6.30;99.90;;;;;;4960636;28;20027;-65
2023/11/10 01:44:54;;;;;;;5.10;1.40;;;6.20;99.90;;;;;;4963641;28;20541;-65
2023/11/10 01:47:19;;;;;;;6.40;2.25;;;6.20;99.90;;;;;;4962529;28;20619;-64
2023/11/10 01:49:45;;;;;;;6.93;1.33;;;6.20;99.90;;;;;;4958993;28;20031;-64
2023/11/10 01:52:12;;;;;;;5.15;1.30;;;6.20;99.90;;;;;;4960861;28;20393;-63
2023/11/10 01:54:41;;;;;;;6.18;1.48;;;6.10;99.90;;;;;;4959716;28;20576;-65
2023/11/10 01:57:09;;;;;;;3.58;1.30;;;6.20;99.90;;;;;;4961247;28;20034;-65
2023/11/10 01:59:36;;;;;;;5.38;1.42;;;6.10;99.90;;;;;;4960614;28;20037;-65
2023/11/10 02:02:03;;;;;;;6.97;1.38;;;6.10;99.90;;;;;;4962320;28;20053;-65
2023/11/10 02:04:32;;;;;;;5.85;1.45;;;6.10;99.90;;;;;;4960141;28;20023;-65
2023/11/10 02:06:58;;;;;;;6.85;1.75;;;6.10;99.90;;;;;;4960438;28;20031;-64
2023/11/10 02:09:24;;;;;;;8.63;1.90;;;6.10;99.90;;;;;;4974835;28;20056;-64
2023/11/10 02:11:50;;;;;;;7.85;1.70;;;6.10;99.90;;;;;;4978579;28;20355;-64
2023/11/10 02:14:15;;;;;;;6.28;1.52;;;6.10;99.90;;;;;;4984515;28;20026;-64
2023/11/10 02:16:43;;;;;;;4.22;1.40;;;6.10;99.90;;;;;;4979043;28;20034;-64
2023/11/10 02:19:14;;;;;;;8.13;1.80;;;6.10;99.90;;;;;;4979981;28;20034;-64
2023/11/10 02:21:40;;;;;;;4.18;1.35;;;6.10;99.90;;;;;;4941413;28;20051;-64
2023/11/10 02:24:12;;;;;;;6.10;1.73;;;6.10;99.90;;;;;;4978729;28;20065;-64
2023/11/10 02:26:38;;;;;;;5.25;1.50;;;6.10;99.90;;;;;;4979506;28;20037;-64
2023/11/10 02:29:05;;;;;;;5.47;1.73;;;6.00;99.90;;;;;;4979428;28;20030;-64
2023/11/10 02:31:30;;;;;;;6.20;1.38;;;6.20;99.90;;;;;;4973489;28;20027;-64
2023/11/10 02:33:57;;;;;;;4.85;1.30;;;6.10;99.90;;;;;;4981830;28;20505;-64
2023/11/10 02:36:22;;;;;;;6.38;1.50;;;6.10;99.90;;;;;;4948346;28;20019;-64
2023/11/10 02:38:50;;;;;;;2.97;1.30;;;6.10;99.90;;;;;;4982561;28;20122;-64
2023/11/10 02:41:16;;;;;;;6.18;1.67;;;6.10;99.90;;;;;;4983073;28;20089;-64
2023/11/10 02:43:42;;;;;;;5.22;1.30;;;6.10;99.90;;;;;;4981983;28;20027;-65
2023/11/10 02:46:07;;;;;;;6.57;1.42;;;6.20;99.90;;;;;;4985106;28;20030;-64
2023/11/10 02:48:35;;;;;;;6.45;1.30;;;6.20;99.90;;;;;;4981711;28;20100;-64
2023/11/10 02:51:01;;;;;;;3.28;1.10;;;6.20;99.90;;;;;;4984003;28;20062;-64
2023/11/10 02:53:26;;;;;;;7.32;1.42;;;6.30;99.90;;;;;;4983337;28;20050;-64
2023/11/10 02:55:52;;;;;;;3.83;1.25;;;6.30;99.90;;;;;;4985685;28;20048;-64
2023/11/10 02:58:17;;;;;;;4.22;1.40;;;6.40;99.90;;;;;;4980210;28;20026;-64
2023/11/10 03:00:44;;;;;;;2.92;1.27;;;6.30;99.90;;;;;;4980529;28;20039;-64
2023/11/10 03:03:12;;;;;;;2.67;1.13;;;6.30;99.90;;;;;;4983087;28;20034;-64
2023/11/10 03:05:39;;;;;;;4.45;1.20;;;6.30;99.90;;;;;;4981633;28;20019;-64
2023/11/10 03:08:07;;;;;;;5.18;1.60;;;6.30;99.90;;;;;;4982439;28;20382;-64
2023/11/10 03:10:33;;;;;;;4.13;1.38;;;6.30;99.90;;;;;;4982927;28;20030;-64
2023/11/10 03:12:59;;;;;;;3.38;1.25;;;6.20;99.90;;;;;;4982525;28;20026;-64
2023/11/10 03:15:25;;;;;;;3.17;1.20;;;6.20;99.90;;;;;;4984657;28;20041;-64
2023/11/10 03:17:51;;;;;;;5.00;1.30;;;6.30;99.90;;;;;;4982453;28;20660;-64
2023/11/10 03:20:16;;;;;;;3.20;1.20;;;6.20;99.90;;;;;;4982495;28;20026;-64
2023/11/10 03:22:42;;;;;;;6.05;1.30;;;6.20;99.90;;;;;;4983663;28;20429;-64
2023/11/10 03:25:09;;;;;;;3.67;1.25;;;6.10;99.90;;;;;;4981399;28;20027;-64
2023/11/10 03:27:35;;;;;;;5.95;1.48;;;6.20;99.90;;;;;;4981750;28;20030;-64
2023/11/10 03:30:03;;;;;;;8.02;1.52;;;6.20;99.90;;;;;;4981343;28;20031;-64
2023/11/10 03:32:31;;;;;;;5.80;1.60;;;6.10;99.90;;;;;;4979737;28;20388;-64
2023/11/10 03:34:57;;;;;;;4.28;1.30;;;6.20;99.90;;;;;;4981304;28;20432;-64
2023/11/10 03:37:22;;;;;;;5.82;1.77;;;6.20;99.90;;;;;;4984403;28;20093;-64
2023/11/10 03:39:49;;;;;;;7.72;1.60;;;6.30;99.90;;;;;;4981161;28;20021;-64
2023/11/10 03:42:14;;;;;;;9.43;1.77;;;6.20;99.90;;;;;;4983062;28;20401;-64
2023/11/10 03:44:41;;;;;;;4.97;1.40;;;6.20;99.90;;;;;;4982333;28;20029;-64
2023/11/10 03:47:07;;;;;;;3.70;1.35;;;6.20;99.90;;;;;;4983201;28;20117;-64
2023/11/10 03:49:34;;;;;;;5.70;1.50;;;6.20;99.90;;;;;;4980030;28;20045;-64
2023/11/10 03:52:02;;;;;;;5.05;1.48;;;6.20;99.90;;;;;;4983851;28;20018;-64
2023/11/10 03:54:29;;;;;;;5.05;1.42;;;6.30;99.90;;;;;;4982459;28;20383;-64
2023/11/10 03:56:55;;;;;;;6.25;1.38;;;6.30;99.90;;;;;;4982167;28;20117;-64
2023/11/10 03:59:20;;;;;;;6.13;1.45;;;6.30;99.90;;;;;;4980780;28;20081;-64
2023/11/10 04:01:46;;;;;;;8.77;1.90;;;6.30;99.90;;;;;;4983131;28;20038;-64
2023/11/10 04:04:12;;;;;;;7.50;1.90;;;6.30;99.90;;;;;;4980632;28;20378;-64
2023/11/10 04:06:37;;;;;;;8.10;1.48;;;6.30;99.90;;;;;;4982182;28;20113;-64
2023/11/10 04:09:03;;;;;;;4.63;1.50;;;6.40;99.90;;;;;;4981584;28;20051;-64
2023/11/10 04:11:29;;;;;;;5.68;1.73;;;6.40;99.90;;;;;;4980726;28;20030;-64
2023/11/10 04:13:56;;;;;;;11.43;1.67;;;6.20;99.90;;;;;;4982716;28;20030;-64
2023/11/10 04:16:23;;;;;;;5.82;1.70;;;6.30;99.90;;;;;;4947787;28;20027;-64
2023/11/10 04:18:52;;;;;;;5.40;1.48;;;6.30;99.90;;;;;;4982359;28;20733;-64
2023/11/10 04:21:20;;;;;;;7.37;1.30;;;6.30;99.90;;;;;;4981962;28;20459;-64
2023/11/10 04:23:46;;;;;;;8.02;1.70;;;6.30;99.90;;;;;;4979982;28;20386;-64
2023/11/10 04:26:13;;;;;;;4.00;1.42;;;6.30;99.90;;;;;;4943642;28;20035;-64
2023/11/10 04:28:39;;;;;;;11.75;2.00;;;6.30;99.90;;;;;;4978292;28;20485;-64
2023/11/10 04:31:05;;;;;;;6.63;1.90;;;6.30;99.90;;;;;;4982057;28;20509;-64
2023/11/10 04:33:30;;;;;;;6.47;1.70;;;6.30;99.90;;;;;;4981045;28;20027;-64
2023/11/10 04:35:59;;;;;;;9.02;1.50;;;6.30;99.90;;;;;;4980839;28;20023;-64
2023/11/10 04:38:27;;;;;;;5.85;1.60;;;6.20;99.90;;;;;;4943478;28;20035;-64
2023/11/10 04:40:53;;;;;;;7.38;1.88;;;6.20;99.90;;;;;;4981957;28;20027;-64
2023/11/10 04:43:19;;;;;;;5.07;1.65;;;6.30;99.90;;;;;;4980770;28;20440;-64
2023/11/10 04:45:44;;;;;;;7.55;1.77;;;6.30;99.90;;;;;;4983392;28;20584;-64
2023/11/10 04:48:10;;;;;;;6.18;1.58;;;6.30;99.90;;;;;;4982311;28;20037;-64
2023/11/10 04:50:39;;;;;;;4.90;1.52;;;6.30;99.90;;;;;;4979056;28;20408;-64
2023/11/10 04:53:05;;;;;;;8.02;1.85;;;6.30;99.90;;;;;;4946286;28;20023;-64
2023/11/10 04:55:31;;;;;;;10.85;2.20;;;6.30;99.90;;;;;;4981493;28;20549;-64
2023/11/10 04:57:57;;;;;;;9.93;2.85;;;6.20;99.90;;;;;;4981698;28;20114;-64
2023/11/10 05:00:26;;;;;;;7.55;1.95;;;6.20;99.90;;;;;;4979994;28;20066;-64
2023/11/10 05:02:53;;;;;;;4.50;1.60;;;6.20;99.90;;;;;;4980682;28;20449;-64
2023/11/10 05:05:20;;;;;;;7.28;2.00;;;6.30;99.90;;;;;;4979889;28;20030;-65
2023/11/10 05:07:50;;;;;;;9.25;2.10;;;6.30;99.90;;;;;;4980569;28;20026;-65
2023/11/10 05:10:16;;;;;;;11.02;2.72;;;6.20;99.90;;;;;;4978989;28;20041;-65
2023/11/10 05:12:41;;;;;;;6.90;2.20;;;6.20;99.90;;;;;;4980074;28;20030;-65
2023/11/10 05:15:12;;;;;;;6.38;2.17;;;6.20;99.90;;;;;;4964894;28;20031;-65
2023/11/10 05:17:43;;;;;;;9.77;2.38;;;6.20;99.90;;;;;;4979474;28;20365;-65
2023/11/10 05:20:13;;;;;;;9.10;2.50;;;6.10;99.90;;;;;;4979499;28;20040;-65
2023/11/10 05:22:40;;;;;;;10.00;2.42;;;6.10;99.90;;;;;;4974117;28;20068;-65
2023/11/10 05:25:07;;;;;;;7.80;2.15;;;6.00;99.90;;;;;;4978885;28;20080;-65
2023/11/10 05:27:33;;;;;;;9.40;2.17;;;6.00;99.90;;;;;;4945117;28;20031;-65
2023/11/10 05:29:58;;;;;;;7.22;2.20;;;6.10;99.90;;;;;;4974595;28;20521;-65
2023/11/10 05:32:25;;;;;;;6.72;2.42;;;6.10;99.90;;;;;;4982067;28;20452;-65
2023/11/10 05:34:51;;;;;;;8.25;2.60;;;6.20;99.90;;;;;;4974653;28;20027;-65
2023/11/10 05:37:21;;;;;;;8.43;2.42;;;6.20;99.90;;;;;;4975161;28;20425;-65
2023/11/10 05:39:47;;;;;;;6.88;2.03;;;6.30;99.90;;;;;;4976241;28;20053;-65
2023/11/10 05:42:13;;;;;;;7.07;2.30;;;6.30;99.90;;;;;;4973519;28;20030;-65
2023/11/10 05:44:39;;;;;;;6.97;1.83;;;6.30;99.90;;;;;;4977079;28;20027;-65
2023/11/10 05:47:05;;;;;;;5.63;1.83;;;6.30;99.90;;;;;;4957737;28;20058;-65
2023/11/10 05:49:32;;;;;;;7.18;2.15;;;6.30;99.90;;;;;;4973065;28;20723;-65
2023/11/10 05:51:58;;;;;;;8.77;2.40;;;6.30;99.90;;;;;;4971478;28;20471;-65
2023/11/10 05:54:23;;;;;;;8.98;2.20;;;6.30;99.90;;;;;;4975395;28;20109;-65
2023/11/10 05:56:49;;;;;;;8.00;2.30;;;6.30;99.90;;;;;;4974842;28;20434;-65
2023/11/10 05:59:15;;;;;;;7.35;2.20;;;6.30;99.90;;;;;;4976410;28;20030;-65
2023/11/10 06:01:40;;;;;;;6.82;2.20;;;6.30;99.90;;;;;;4984104;28;20459;-65
2023/11/10 06:04:07;;;;;;;5.63;1.83;;;6.30;99.90;;;;;;4979848;28;20081;-65
2023/11/10 06:06:33;;;;;;;10.90;2.20;;;6.30;99.90;;;;;;4978941;28;20133;-65
2023/11/10 06:08:58;;;;;;;8.30;2.00;;;6.30;99.90;;;;;;4974894;28;20125;-65
2023/11/10 06:11:24;;;;;;;9.48;2.08;;;6.30;99.90;;;;;;4977029;28;20018;-65
2023/11/10 06:13:51;;;;;;;13.15;2.60;;;6.30;99.90;;;;;;4976112;28;20027;-63
2023/11/10 06:16:17;;;;;;;6.25;2.03;;;6.30;99.90;;;;;;4980412;28;20030;-64
2023/11/10 06:18:46;;;;;;;7.03;1.90;;;6.30;99.90;;;;;;4983790;28;20085;-63
2023/11/10 06:21:14;;;;;;;4.95;1.63;;;6.30;99.90;;;;;;4982044;28;20485;-64
2023/11/10 06:23:40;;;;;;;6.55;2.33;;;6.40;99.90;;;;;;4962898;28;20031;-64
2023/11/10 06:26:06;;;;;;;8.75;2.65;;;6.40;99.90;;;;;;4983613;28;20488;-64
2023/11/10 06:28:32;;;;;;;4.97;1.98;;;6.40;99.90;;;;;;4981239;28;20039;-64
2023/11/10 06:30:58;;;;;;;5.93;2.35;;;6.40;99.90;;;;;;4981711;28;20114;-64
2023/11/10 06:33:27;;;;;;;9.02;2.50;;;6.40;99.90;;;;;;4983155;28;20168;-64
2023/11/10 06:35:53;;;;;;;8.48;2.40;;;6.40;99.90;;;;;;4980801;28;20080;-64
2023/11/10 06:38:18;;;;;;;9.13;2.33;;;6.40;99.90;;;;;;4982409;28;20109;-64
2023/11/10 06:40:44;;;;;;;6.68;2.60;;;6.50;99.90;;;;;;4983972;28;20027;-64
2023/11/10 06:43:10;;;;;;;6.80;2.30;;;6.50;99.90;;;;;;4980325;28;20057;-64
2023/11/10 06:45:35;;;;;;;8.27;2.63;;;6.50;99.90;;;;;;4976235;28;20030;-63
2023/11/10 06:48:03;;;;;;;8.80;2.47;;;6.50;99.90;;;;;;4979194;28;20109;-64
2023/11/10 06:50:31;;;;;;;6.25;2.30;;;6.60;99.90;;;;;;4979928;28;20362;-62
2023/11/10 06:53:00;;;;;;;8.20;2.55;;;6.50;99.90;;;;;;4979421;28;20850;-64
2023/11/10 06:55:26;;;;;;;7.18;2.50;;;6.50;99.90;;;;;;4979542;28;20045;-62
2023/11/10 06:57:55;;;;;;;11.05;2.15;;;6.60;99.90;;;;;;4979583;28;20030;-64
2023/11/10 07:00:20;;;;;;;9.38;2.65;;;6.60;99.90;;;;;;4978990;28;20100;-64
2023/11/10 07:02:46;;;;;;;7.70;2.05;;;6.70;99.90;;;;;;4980780;28;20085;-64
2023/11/10 07:05:12;;;;;;;9.02;2.45;;;6.60;99.90;;;;;;4981568;28;20084;-62
2023/11/10 07:07:37;;;;;;;7.80;2.50;;;6.60;99.90;;;;;;4979154;28;20030;-64
2023/11/10 07:10:04;;;;;;;8.80;2.28;;;6.60;99.90;;;;;;4981885;28;20050;-64
2023/11/10 07:12:30;;;;;;;14.60;2.58;;;6.60;99.90;;;;;;4975217;28;20030;-64
2023/11/10 07:14:56;;;;;;;8.13;1.92;;;6.70;99.90;;;;;;4976602;28;20406;-64
2023/11/10 07:17:22;;;;;;;7.63;2.42;;;6.70;99.90;;;;;;4979372;28;20509;-64
2023/11/10 07:20:00;;;;;;;11.48;2.30;;;6.70;99.90;;;;;;4975851;28;20046;-64
2023/11/10 07:22:26;;;;;;;10.32;2.85;;;6.70;99.90;;;;;;4971454;28;20091;-64
2023/11/10 07:24:52;;;;;;;8.88;2.35;;;6.70;99.90;;;;;;4977890;28;20101;-64
2023/11/10 07:27:21;;;;;;;6.57;2.20;;;6.80;99.90;;;;;;4976019;28;20062;-64
2023/11/10 07:29:46;;;;;;;6.75;2.13;;;6.80;99.90;;;;;;4976449;28;20442;-64
2023/11/10 07:32:12;;;;;;;9.13;2.40;;;6.90;99.90;;;;;;4975185;28;20091;-64
2023/11/10 07:34:38;;;;;;;5.90;1.95;;;6.90;99.90;;;;;;4970284;28;20034;-62
2023/11/10 07:37:03;;;;;;;7.10;2.28;;;7.00;99.90;;;;;;4971352;28;20058;-63
2023/11/10 07:39:30;;;;;;;7.85;1.80;;;7.00;99.90;;;;;;4977210;28;20030;-64
2023/11/10 07:41:56;;;;;;;7.35;1.77;;;7.10;99.90;;;;;;4979070;28;20560;-64
2023/11/10 07:44:22;;;;;;;9.27;2.33;;;7.10;99.90;;;;;;4974432;28;20467;-64
2023/11/10 07:46:48;;;;;;;7.82;2.00;;;7.10;99.90;;;;;;4975648;28;20040;-64
2023/11/10 07:49:16;;;;;;;8.60;2.10;;;7.20;99.90;;;;;;4975876;28;20027;-64
2023/11/10 07:51:41;;;;;;;7.20;1.92;;;7.30;99.90;;;;;;4974432;28;20019;-65
2023/11/10 07:54:07;;;;;;;6.82;1.80;;;7.30;99.90;;;;;;4977531;28;20029;-62
2023/11/10 07:56:33;;;;;;;6.72;1.65;;;7.30;99.90;;;;;;4978359;28;20122;-64
2023/11/10 07:58:58;;;;;;;4.78;1.85;;;7.30;99.90;;;;;;4973753;28;20047;-64
2023/11/10 08:01:24;;;;;;;5.18;1.92;;;7.40;99.90;;;;;;4982027;28;20038;-64
2023/11/10 08:03:50;;;;;;;9.70;2.65;;;7.40;99.90;;;;;;4975252;28;20034;-62
2023/11/10 08:06:16;;;;;;;7.07;1.77;;;7.50;99.90;;;;;;4977329;28;20465;-64
2023/11/10 08:08:42;;;;;;;4.75;1.70;;;7.50;99.90;;;;;;4971559;28;20046;-62
2023/11/10 08:11:11;;;;;;;7.38;1.98;;;7.50;99.90;;;;;;4975513;28;20539;-61
2023/11/10 08:13:39;;;;;;;7.32;2.00;;;7.60;99.90;;;;;;4978839;28;20031;-62
2023/11/10 08:16:06;;;;;;;11.20;2.30;;;7.60;99.90;;;;;;4972884;28;20085;-62
2023/11/10 08:18:32;;;;;;;9.80;2.25;;;7.60;99.90;;;;;;4977226;28;20041;-62
2023/11/10 08:20:58;;;;;;;6.00;2.10;;;7.60;99.90;;;;;;4952633;28;20030;-64
2023/11/10 08:23:23;;;;;;;9.75;2.05;;;7.50;99.90;;;;;;4982276;28;20030;-64
2023/11/10 08:25:50;;;;;;;12.38;3.03;;;7.40;99.90;;;;;;4974943;28;20041;-62
2023/11/10 08:28:18;;;;;;;9.15;2.70;;;7.40;99.90;;;;;;4976639;28;20542;-62
2023/11/10 08:30:45;;;;;;;7.65;2.33;;;7.40;99.90;;;;;;4979645;28;20042;-63
2023/11/10 08:33:11;;;;;;;9.52;2.20;;;7.30;99.90;;;;;;4951643;28;20027;-62
2023/11/10 08:35:41;;;;;;;8.80;2.38;;;7.50;99.90;;;;;;4965832;28;20133;-65
2023/11/10 08:38:09;;;;;;;;;;;7.60;99.90;;;;;;4971472;28;20031;-63
2023/11/10 08:40:34;;;;;;;11.23;2.45;;;7.90;99.90;;;;;;4975932;28;19965;-65
2023/11/10 08:43:00;;;;;;;6.20;1.90;;;8.10;99.90;;;;;;4967426;28;20062;-64
2023/11/10 08:45:26;;;;;;;6.43;2.22;;;8.40;99.90;;;;;;4975628;28;20034;-64
2023/11/10 08:47:52;;;;;;;10.68;1.90;;;8.60;99.90;;;;;;4975651;28;20038;-65
2023/11/10 08:50:20;;;;;;;8.88;2.08;;;9.20;99.90;;;;;;4976773;28;20022;-64
2023/11/10 08:52:47;;;;;;;7.78;1.95;;;9.50;99.90;;;;;;4973404;28;20457;-63
2023/11/10 08:55:17;;;;;;;6.70;1.60;;;9.40;99.90;;;;;;4975933;28;20038;-63
2023/11/10 08:57:43;;;;;;;7.28;1.80;;;9.00;99.90;;;;;;4969844;28;20019;-64
2023/11/10 09:00:10;;;;;;;6.13;1.63;;;8.70;99.90;;;;;;4976227;28;20037;-63
2023/11/10 09:02:38;;;;;;;7.78;1.70;;;8.50;99.90;;;;;;4965642;28;20381;-63
2023/11/10 09:05:13;;;;;;;6.80;1.90;;;8.50;99.90;;;;;;4976176;28;20054;-63
2023/11/10 09:07:41;;;;;;;7.18;1.55;;;8.90;99.90;;;;;;4971902;28;20030;-63
2023/11/10 09:10:11;;;;;;;9.60;1.80;;;9.30;99.90;;;;;;4976331;28;20050;-64
2023/11/10 09:12:48;;;;;;;4.65;1.50;;;9.80;99.90;;;;;;4947227;28;20030;-64
2023/11/10 09:15:14;;;;;;;4.60;1.35;;;9.90;99.90;;;;;;4976043;28;20054;-64
2023/11/10 09:17:40;;;;;;;2.88;1.08;;;9.90;99.90;;;;;;4972110;28;20052;-64
2023/11/10 09:20:07;;;;;;;4.57;1.42;;;9.40;99.90;;;;;;4975201;28;20561;-63
2023/11/10 09:22:36;;;;;;;4.63;1.27;;;9.10;99.90;;;;;;4978421;28;20026;-63
2023/11/10 09:25:04;;;;;;;4.05;1.33;;;8.80;99.90;;;;;;4971437;28;20506;-63
2023/11/10 09:27:31;;;;;;;4.82;1.42;;;8.70;99.90;;;;;;4975217;28;20055;-63
2023/11/10 09:29:57;;;;;;;5.63;1.30;;;8.80;99.90;;;;;;4973426;28;20066;-63
2023/11/10 09:32:23;;;;;;;5.88;1.55;;;8.90;99.90;;;;;;4978034;28;20058;-63
2023/11/10 09:34:49;;;;;;;3.85;1.23;;;9.00;99.90;;;;;;4976530;28;20035;-64
2023/11/10 09:37:17;;;;;;;5.18;1.33;;;8.90;99.90;;;;;;4960608;28;20031;-63
2023/11/10 09:39:46;;;;;;;8.45;1.40;;;8.80;99.90;;;;;;4974749;28;20027;-63
2023/11/10 09:42:12;;;;;;;4.47;1.35;;;8.70;99.90;;;;;;4974627;28;20136;-63
2023/11/10 09:44:49;;;;;;;3.90;1.25;;;8.80;99.90;;;;;;4976523;28;20461;-61
2023/11/10 09:47:17;;;;;;;3.38;1.10;;;8.90;99.90;;;;;;4974667;28;20028;-61
2023/11/10 09:49:43;;;;;;;6.10;1.10;;;9.30;99.90;;;;;;4976552;28;20035;-61
2023/11/10 09:52:11;;;;;;;6.88;1.50;;;9.80;99.90;;;;;;4973453;28;20089;-61
2023/11/10 09:54:37;;;;;;;4.30;1.25;;;10.20;99.90;;;;;;4977424;28;20121;-61
2023/11/10 09:57:03;;;;;;;3.17;1.10;;;10.70;99.90;;;;;;4968628;28;20031;-61
2023/11/10 09:59:31;;;;;;;3.60;1.10;;;11.10;99.90;;;;;;4968026;28;20041;-61
2023/11/10 10:01:59;;;;;;;3.83;1.10;;;11.30;99.90;;;;;;4975938;28;20049;-61
2023/11/10 10:04:25;;;;;;;3.45;0.90;;;11.30;99.90;;;;;;4978546;28;20435;-61
2023/11/10 10:06:56;;;;;;;4.70;1.10;;;11.30;99.90;;;;;;4973779;28;20058;-61
2023/11/10 10:09:22;;;;;;;4.82;1.60;;;11.10;99.90;;;;;;4975909;28;20494;-62
2023/11/10 10:11:48;;;;;;;5.72;1.40;;;10.80;99.90;;;;;;4979495;28;20035;-62
2023/11/10 10:14:14;;;;;;;4.07;1.15;;;10.50;99.90;;;;;;4967734;28;20121;-62
2023/11/10 10:16:53;;;;;;;3.78;1.20;;;10.50;99.90;;;;;;4970563;28;20435;-61
2023/11/10 10:19:29;;;;;;;5.65;1.15;;;10.60;99.90;;;;;;4969927;28;20405;-61
2023/11/10 10:21:56;;;;;;;5.15;1.27;;;10.70;99.90;;;;;;4975139;28;20038;-62
2023/11/10 10:24:22;;;;;;;5.05;1.20;;;11.00;99.90;;;;;;4971137;28;20019;-62
2023/11/10 10:26:51;;;;;;;3.75;0.90;;;11.00;99.90;;;;;;4977692;28;20084;-62
2023/11/10 10:29:18;;;;;;;7.35;1.15;;;10.90;99.90;;;;;;4976555;28;20256;-62
2023/11/10 10:31:47;;;;;;;5.80;1.33;;;10.50;99.90;;;;;;4971758;28;20678;-62
2023/11/10 10:34:15;;;;;;;6.10;1.50;;;10.30;99.90;;;;;;4972849;28;20122;-62
2023/11/10 10:36:44;;;;;;;5.90;1.27;;;10.40;99.90;;;;;;4975990;28;20026;-62
2023/11/10 10:39:15;;;;;;;5.65;1.20;;;10.60;99.90;;;;;;4952017;28;20045;-61
2023/11/10 10:41:47;;;;;;;3.08;1.20;;;10.50;99.90;;;;;;4974515;28;20038;-61
2023/11/10 10:44:14;;;;;;;5.90;1.38;;;10.20;99.90;;;;;;4967924;28;20031;-61
2023/11/10 10:46:41;;;;;;;7.30;1.88;;;10.00;99.90;;;;;;4975437;28;20443;-61
2023/11/10 10:49:07;;;;;;;5.00;1.20;;;9.90;99.90;;;;;;4958731;28;20043;-61
2023/11/10 10:51:37;;;;;;;7.43;1.50;;;9.90;99.90;;;;;;4972890;28;20022;-61
2023/11/10 10:54:08;;;;;;;5.00;1.38;;;9.80;99.90;;;;;;4969578;28;20049;-62
2023/11/10 10:56:37;;;;;;;6.13;1.60;;;9.60;99.90;;;;;;4974533;28;20034;-62
2023/11/10 10:59:04;;;;;;;3.75;1.05;;;9.50;99.90;;;;;;4972726;28;20038;-62
2023/11/10 11:01:31;;;;;;;3.97;1.30;;;9.30;99.90;;;;;;4979241;28;20076;-62
2023/11/10 11:04:26;;;;;;;5.10;1.25;;;9.30;99.90;;;;;;4973125;28;20031;-62
2023/11/10 11:07:13;;;;;;;7.00;1.50;;;9.40;99.90;;;;;;4972761;28;20487;-62
2023/11/10 11:10:06;;;;;;;7.22;1.30;;;9.40;99.90;;;;;;4970308;28;20055;-62
2023/11/10 11:13:03;;;;;;;6.82;1.60;;;9.30;99.90;;;;;;4973365;28;20057;-62
2023/11/10 11:15:56;;;;;;;5.00;1.08;;;9.20;99.90;;;;;;4971892;28;20146;-62
2023/11/10 11:18:31;;;;;;;4.43;1.30;;;9.10;99.90;;;;;;4964756;28;20387;-62
2023/11/10 11:20:57;;;;;;;5.50;1.27;;;9.10;99.90;;;;;;4967168;28;20136;-62
2023/11/10 11:23:23;;;;;;;2.00;0.93;;;9.10;99.90;;;;;;4971315;28;20038;-62
2023/11/10 11:25:59;;;;;;;7.28;2.08;;;9.00;99.90;;;;;;4979200;28;20034;-62
2023/11/10 11:28:28;;;;;;;4.53;1.38;;;9.20;99.90;;;;;;4975221;28;20114;-62
2023/11/10 11:31:08;;;;;;;4.18;1.00;;;9.40;99.90;;;;;;4973410;28;20718;-63
2023/11/10 11:33:46;;;;;;;3.35;0.90;;;9.90;99.90;;;;;;4969241;28;20027;-62
2023/11/10 11:36:16;;;;;;;4.63;1.38;;;10.60;99.90;;;;;;4963934;28;20352;-62
2023/11/10 11:38:42;;;;;;;4.72;1.45;;;11.20;99.90;;;;;;4972016;28;20393;-62
2023/11/10 11:41:09;;;;;;;3.33;1.05;;;11.40;98.20;;;;;;4975310;28;20474;-62
2023/11/10 11:43:34;;;;;;;5.68;1.45;;;11.20;99.90;;;;;;4973950;28;20093;-62
2023/11/10 11:46:03;;;;;;;6.55;1.20;;;11.10;99.90;;;;;;4975891;28;20034;-62
2023/11/10 11:48:35;;;;;;;4.10;1.20;;;11.10;99.90;;;;;;4951231;28;20030;-63
2023/11/10 11:51:03;;;;;;;5.43;1.13;;;11.30;99.90;;;;;;4973246;28;20035;-63
2023/11/10 11:53:29;;;;;;;5.40;1.10;;;11.40;98.60;;;;;;4975867;28;20483;-63
2023/11/10 11:55:55;;;;;;;2.33;0.90;;;11.30;99.80;;;;;;4976663;28;20122;-63
2023/11/10 11:58:22;;;;;;;4.70;1.35;;;11.00;99.70;;;;;;4973021;28;20142;-64
2023/11/10 12:00:48;;;;;;;4.45;1.10;;;10.90;99.90;;;;;;4970893;28;20517;-63
2023/11/10 12:03:17;;;;;;;5.35;1.05;;;10.90;99.90;;;;;;4972126;28;20031;-63
2023/11/10 12:05:45;;;;;;;6.60;1.15;;;10.80;99.90;;;;;;4977295;28;20490;-63
2023/11/10 12:08:11;;;;;;;4.75;0.80;;;10.80;99.90;;;;;;4972900;28;20150;-63
2023/11/10 12:10:38;;;;;;;3.13;1.08;;;10.80;99.90;;;;;;4972252;28;20574;-63
2023/11/10 12:13:06;;;;;;;5.15;1.02;;;10.80;99.90;;;;;;4977509;28;20077;-63
2023/11/10 12:15:33;;;;;;;6.65;1.20;;;10.60;99.90;;;;;;4976913;28;20026;-63
2023/11/10 12:18:02;;;;;;;5.10;1.20;;;10.40;99.90;;;;;;4975291;28;20037;-63
2023/11/10 12:20:31;;;;;;;4.57;1.10;;;10.20;99.90;;;;;;4976978;28;20390;-63
2023/11/10 12:22:57;;;;;;;4.13;1.13;;;10.00;99.90;;;;;;4979626;28;20137;-63
2023/11/10 12:25:26;;;;;;;6.15;1.20;;;10.00;99.90;;;;;;4977707;28;20102;-63
2023/11/10 12:27:53;;;;;;;5.00;1.45;;;9.90;99.90;;;;;;4973982;28;20040;-63
2023/11/10 12:30:19;;;;;;;5.13;1.13;;;9.80;99.90;;;;;;4978814;28;20466;-63
2023/11/10 12:32:47;;;;;;;6.70;1.63;;;9.80;99.90;;;;;;4970810;28;20030;-63
2023/11/10 12:35:13;;;;;;;4.47;1.10;;;9.80;99.90;;;;;;4973245;28;20104;-63
2023/11/10 12:37:39;;;;;;;4.10;1.05;;;9.80;99.90;;;;;;4974922;28;20040;-63
2023/11/10 12:40:17;;;;;;;5.68;1.15;;;9.90;99.90;;;;;;4977567;28;20109;-63
2023/11/10 12:42:45;;;;;;;9.40;1.65;;;9.90;99.90;;;;;;4976124;28;20030;-63
2023/11/10 12:45:12;;;;;;;4.88;1.00;;;9.80;99.90;;;;;;4976308;28;20053;-64
2023/11/10 12:47:42;;;;;;;3.53;1.05;;;9.80;99.90;;;;;;4973630;28;20034;-63
2023/11/10 12:50:22;;;;;;;3.13;0.98;;;9.70;99.90;;;;;;4969916;28;20109;-63
2023/11/10 12:52:51;;;;;;;5.32;1.05;;;9.60;99.90;;;;;;4970456;28;20034;-63
2023/11/10 12:55:24;;;;;;;3.88;1.20;;;9.70;99.90;;;;;;4974523;28;20023;-63
2023/11/10 12:57:52;;;;;;;4.50;1.17;;;9.70;99.90;;;;;;4966792;28;20118;-63